sensor_id;sensor_type;location;lat;lon;timestamp;pressure;altitude;pressure_sealevel;temperature;humidity
57114;BME280;42994;51.606;9.988;2023-03-23T00:00:26;98032.78;;;11.24;100.00
57114;BME280;42994;51.606;9.988;2023-03-23T00:02:53;98032.41;;;11.21;100.00
57114;BME280;42994;51.606;9.988;2023-03-23T00:05:20;98030.44;;;11.09;100.00
57114;BME280;42994;51.606;9.988;2023-03-23T00:07:46;98019.38;;;11.24;100.00
57114;BME280;42994;51.606;9.988;2023-03-23T00:10:17;98019.22;;;11.19;100.00
57114;BME280;42994;51.606;9.988;2023-03-23T00:12:44;98018.63;;;11.17;100.00
57114;BME280;42994;51.606;9.988;2023-03-23T00:15:16;98017.41;;;11.13;100.00
57114;BME280;42994;51.606;9.988;2023-03-23T00:17:43;98014.13;;;11.36;100.00
57114;BME280;42994;51.606;9.988;2023-03-23T00:20:10;98011.78;;;11.21;100.00
57114;BME280;42994;51.606;9.988;2023-03-23T00:22:38;98006.00;;;11.43;100.00
57114;BME280;42994;51.606;9.988;2023-03-23T00:25:06;97996.88;;;11.25;100.00
57114;BME280;42994;51.606;9.988;2023-03-23T00:27:34;98006.97;;;11.30;100.00
57114;BME280;42994;51.606;9.988;2023-03-23T00:30:01;98000.69;;;11.36;100.00
57114;BME280;42994;51.606;9.988;2023-03-23T00:32:29;98005.22;;;11.17;100.00
57114;BME280;42994;51.606;9.988;2023-03-23T00:34:56;98005.25;;;11.35;100.00
57114;BME280;42994;51.606;9.988;2023-03-23T00:37:24;98014.47;;;11.21;100.00
57114;BME280;42994;51.606;9.988;2023-03-23T00:39:50;98007.28;;;11.15;100.00
57114;BME280;42994;51.606;9.988;2023-03-23T00:42:23;98006.47;;;11.14;100.00
57114;BME280;42994;51.606;9.988;2023-03-23T00:44:49;98010.03;;;11.33;100.00
57114;BME280;42994;51.606;9.988;2023-03-23T00:47:19;98026.97;;;11.27;100.00
57114;BME280;42994;51.606;9.988;2023-03-23T00:49:47;98025.34;;;11.26;100.00
57114;BME280;42994;51.606;9.988;2023-03-23T00:52:15;98022.72;;;11.20;100.00
57114;BME280;42994;51.606;9.988;2023-03-23T00:54:42;98023.00;;;11.11;100.00
57114;BME280;42994;51.606;9.988;2023-03-23T00:57:08;98027.38;;;11.06;100.00
57114;BME280;42994;51.606;9.988;2023-03-23T00:59:35;98035.88;;;11.03;100.00
57114;BME280;42994;51.606;9.988;2023-03-23T01:02:02;98020.00;;;11.01;100.00
57114;BME280;42994;51.606;9.988;2023-03-23T01:04:29;98013.31;;;10.85;100.00
57114;BME280;42994;51.606;9.988;2023-03-23T01:06:58;98018.94;;;10.77;100.00
57114;BME280;42994;51.606;9.988;2023-03-23T01:09:26;98015.44;;;10.76;100.00
57114;BME280;42994;51.606;9.988;2023-03-23T01:11:53;98007.44;;;10.70;100.00
57114;BME280;42994;51.606;9.988;2023-03-23T01:14:21;98002.56;;;10.60;100.00
57114;BME280;42994;51.606;9.988;2023-03-23T01:16:49;97999.28;;;10.58;100.00
57114;BME280;42994;51.606;9.988;2023-03-23T01:19:16;97990.09;;;10.72;100.00
57114;BME280;42994;51.606;9.988;2023-03-23T01:21:42;97988.22;;;10.73;100.00
57114;BME280;42994;51.606;9.988;2023-03-23T01:24:11;97989.31;;;10.65;100.00
57114;BME280;42994;51.606;9.988;2023-03-23T01:26:37;97984.94;;;10.71;100.00
57114;BME280;42994;51.606;9.988;2023-03-23T01:29:04;97979.66;;;10.64;100.00
57114;BME280;42994;51.606;9.988;2023-03-23T01:31:31;97974.72;;;10.61;100.00
57114;BME280;42994;51.606;9.988;2023-03-23T01:33:58;97980.56;;;10.76;100.00
57114;BME280;42994;51.606;9.988;2023-03-23T01:36:25;97967.47;;;10.68;100.00
57114;BME280;42994;51.606;9.988;2023-03-23T01:38:55;97975.53;;;10.62;100.00
57114;BME280;42994;51.606;9.988;2023-03-23T01:41:25;97963.97;;;10.68;100.00
57114;BME280;42994;51.606;9.988;2023-03-23T01:43:57;97970.78;;;10.64;100.00
57114;BME280;42994;51.606;9.988;2023-03-23T01:46:25;97958.66;;;10.61;100.00
57114;BME280;42994;51.606;9.988;2023-03-23T01:48:53;97965.69;;;10.55;100.00
57114;BME280;42994;51.606;9.988;2023-03-23T01:51:24;97967.19;;;10.51;100.00
57114;BME280;42994;51.606;9.988;2023-03-23T01:53:54;97962.84;;;10.50;100.00
57114;BME280;42994;51.606;9.988;2023-03-23T01:56:26;97955.41;;;10.52;100.00
57114;BME280;42994;51.606;9.988;2023-03-23T01:58:56;97954.22;;;10.48;100.00
57114;BME280;42994;51.606;9.988;2023-03-23T02:01:24;97943.91;;;10.45;100.00
57114;BME280;42994;51.606;9.988;2023-03-23T02:03:53;97938.56;;;10.45;100.00
57114;BME280;42994;51.606;9.988;2023-03-23T02:06:20;97930.34;;;10.40;100.00
57114;BME280;42994;51.606;9.988;2023-03-23T02:09:04;97942.72;;;10.41;100.00
57114;BME280;42994;51.606;9.988;2023-03-23T02:11:33;97947.66;;;10.44;100.00
57114;BME280;42994;51.606;9.988;2023-03-23T02:16:34;97944.78;;;10.39;100.00
57114;BME280;42994;51.606;9.988;2023-03-23T02:19:22;97937.56;;;10.39;100.00
57114;BME280;42994;51.606;9.988;2023-03-23T02:24:59;97940.59;;;10.50;100.00
57114;BME280;42994;51.606;9.988;2023-03-23T02:28:00;97935.91;;;10.38;100.00
57114;BME280;42994;51.606;9.988;2023-03-23T02:30:58;97920.91;;;10.37;100.00
57114;BME280;42994;51.606;9.988;2023-03-23T02:33:46;97907.00;;;10.47;100.00
57114;BME280;42994;51.606;9.988;2023-03-23T02:36:20;97917.72;;;10.47;100.00
57114;BME280;42994;51.606;9.988;2023-03-23T02:38:55;97921.19;;;10.54;100.00
57114;BME280;42994;51.606;9.988;2023-03-23T02:41:28;97915.59;;;10.56;100.00
57114;BME280;42994;51.606;9.988;2023-03-23T02:43:57;97919.97;;;10.50;100.00
57114;BME280;42994;51.606;9.988;2023-03-23T02:46:26;97920.19;;;10.49;100.00
57114;BME280;42994;51.606;9.988;2023-03-23T02:48:55;97929.16;;;10.61;100.00
57114;BME280;42994;51.606;9.988;2023-03-23T02:51:24;97925.69;;;10.61;100.00
57114;BME280;42994;51.606;9.988;2023-03-23T02:53:55;97932.94;;;10.53;100.00
57114;BME280;42994;51.606;9.988;2023-03-23T02:56:23;97940.16;;;10.53;100.00
57114;BME280;42994;51.606;9.988;2023-03-23T02:58:53;97928.00;;;10.50;100.00
57114;BME280;42994;51.606;9.988;2023-03-23T03:01:46;97932.59;;;10.43;100.00
57114;BME280;42994;51.606;9.988;2023-03-23T03:04:18;97923.16;;;10.41;100.00
57114;BME280;42994;51.606;9.988;2023-03-23T03:06:53;97929.09;;;10.43;100.00
57114;BME280;42994;51.606;9.988;2023-03-23T03:09:26;97926.25;;;10.37;100.00
57114;BME280;42994;51.606;9.988;2023-03-23T03:12:01;97932.66;;;10.30;100.00
57114;BME280;42994;51.606;9.988;2023-03-23T03:14:33;97926.31;;;10.24;100.00
57114;BME280;42994;51.606;9.988;2023-03-23T03:17:05;97933.31;;;10.25;100.00
57114;BME280;42994;51.606;9.988;2023-03-23T03:19:35;97931.06;;;10.22;100.00
57114;BME280;42994;51.606;9.988;2023-03-23T03:22:05;97921.22;;;10.16;100.00
57114;BME280;42994;51.606;9.988;2023-03-23T03:24:38;97919.00;;;10.06;100.00
57114;BME280;42994;51.606;9.988;2023-03-23T03:27:11;97924.38;;;10.06;100.00
57114;BME280;42994;51.606;9.988;2023-03-23T03:29:47;97918.41;;;10.04;100.00
57114;BME280;42994;51.606;9.988;2023-03-23T03:32:18;97924.00;;;9.96;100.00
57114;BME280;42994;51.606;9.988;2023-03-23T03:34:49;97919.91;;;9.93;100.00
57114;BME280;42994;51.606;9.988;2023-03-23T03:37:18;97916.63;;;9.91;100.00
57114;BME280;42994;51.606;9.988;2023-03-23T03:39:47;97918.91;;;9.88;100.00
57114;BME280;42994;51.606;9.988;2023-03-23T03:42:13;97934.31;;;9.92;100.00
57114;BME280;42994;51.606;9.988;2023-03-23T03:44:40;97930.25;;;9.83;100.00
57114;BME280;42994;51.606;9.988;2023-03-23T03:47:07;97936.41;;;9.84;100.00
57114;BME280;42994;51.606;9.988;2023-03-23T03:49:33;97926.34;;;9.86;100.00
57114;BME280;42994;51.606;9.988;2023-03-23T03:52:02;97926.38;;;9.79;100.00
57114;BME280;42994;51.606;9.988;2023-03-23T03:54:39;97925.75;;;9.77;100.00
57114;BME280;42994;51.606;9.988;2023-03-23T03:57:06;97919.16;;;9.73;100.00
57114;BME280;42994;51.606;9.988;2023-03-23T03:59:51;97931.94;;;9.71;100.00
57114;BME280;42994;51.606;9.988;2023-03-23T04:02:43;97922.50;;;9.68;100.00
57114;BME280;42994;51.606;9.988;2023-03-23T04:05:13;97929.28;;;9.71;100.00
57114;BME280;42994;51.606;9.988;2023-03-23T04:07:45;97922.91;;;9.65;100.00
57114;BME280;42994;51.606;9.988;2023-03-23T04:10:15;97917.56;;;9.65;100.00
57114;BME280;42994;51.606;9.988;2023-03-23T04:12:44;97923.78;;;9.59;100.00
57114;BME280;42994;51.606;9.988;2023-03-23T04:15:33;97916.56;;;9.59;100.00
57114;BME280;42994;51.606;9.988;2023-03-23T04:18:00;97920.03;;;9.60;100.00
57114;BME280;42994;51.606;9.988;2023-03-23T04:20:29;97919.44;;;9.58;100.00
57114;BME280;42994;51.606;9.988;2023-03-23T04:22:57;97927.06;;;9.54;100.00
57114;BME280;42994;51.606;9.988;2023-03-23T04:25:27;97919.28;;;9.53;100.00
57114;BME280;42994;51.606;9.988;2023-03-23T04:27:58;97929.97;;;9.53;100.00
57114;BME280;42994;51.606;9.988;2023-03-23T04:30:30;97939.22;;;9.57;100.00
57114;BME280;42994;51.606;9.988;2023-03-23T04:33:03;97937.59;;;9.49;100.00
57114;BME280;42994;51.606;9.988;2023-03-23T04:35:29;97940.91;;;9.45;100.00
57114;BME280;42994;51.606;9.988;2023-03-23T04:38:18;97944.59;;;9.43;100.00
57114;BME280;42994;51.606;9.988;2023-03-23T04:40:52;97942.56;;;9.46;100.00
57114;BME280;42994;51.606;9.988;2023-03-23T04:43:38;97943.16;;;9.41;100.00
57114;BME280;42994;51.606;9.988;2023-03-23T04:46:26;97946.25;;;9.38;100.00
57114;BME280;42994;51.606;9.988;2023-03-23T04:48:55;97934.75;;;9.37;100.00
57114;BME280;42994;51.606;9.988;2023-03-23T04:51:28;97929.00;;;9.34;100.00
57114;BME280;42994;51.606;9.988;2023-03-23T04:54:00;97923.44;;;9.35;100.00
57114;BME280;42994;51.606;9.988;2023-03-23T04:56:30;97930.66;;;9.28;100.00
57114;BME280;42994;51.606;9.988;2023-03-23T04:59:02;97927.19;;;9.28;100.00
57114;BME280;42994;51.606;9.988;2023-03-23T05:01:40;97916.47;;;9.28;100.00
57114;BME280;42994;51.606;9.988;2023-03-23T05:04:18;97904.94;;;9.27;100.00
57114;BME280;42994;51.606;9.988;2023-03-23T05:07:08;97910.13;;;9.22;100.00
57114;BME280;42994;51.606;9.988;2023-03-23T05:09:46;97902.06;;;9.29;100.00
57114;BME280;42994;51.606;9.988;2023-03-23T05:12:14;97893.03;;;9.23;100.00
57114;BME280;42994;51.606;9.988;2023-03-23T05:14:50;97885.63;;;9.25;100.00
57114;BME280;42994;51.606;9.988;2023-03-23T05:17:19;97891.41;;;9.22;100.00
57114;BME280;42994;51.606;9.988;2023-03-23T05:19:49;97887.28;;;9.26;100.00
57114;BME280;42994;51.606;9.988;2023-03-23T05:22:32;97850.91;;;9.18;100.00
57114;BME280;42994;51.606;9.988;2023-03-23T05:25:02;97835.88;;;9.17;100.00
57114;BME280;42994;51.606;9.988;2023-03-23T05:27:33;97822.72;;;9.16;100.00
57114;BME280;42994;51.606;9.988;2023-03-23T05:30:09;97826.84;;;9.12;100.00
57114;BME280;42994;51.606;9.988;2023-03-23T05:32:38;97821.50;;;9.12;100.00
57114;BME280;42994;51.606;9.988;2023-03-23T05:35:22;97836.53;;;9.13;100.00
57114;BME280;42994;51.606;9.988;2023-03-23T05:37:51;97845.16;;;9.08;100.00
57114;BME280;42994;51.606;9.988;2023-03-23T05:40:20;97846.19;;;9.07;100.00
57114;BME280;42994;51.606;9.988;2023-03-23T05:42:55;97863.06;;;9.08;100.00
57114;BME280;42994;51.606;9.988;2023-03-23T05:45:32;97873.56;;;9.02;100.00
57114;BME280;42994;51.606;9.988;2023-03-23T05:47:59;97875.00;;;8.98;100.00
57114;BME280;42994;51.606;9.988;2023-03-23T05:50:27;97895.75;;;9.03;100.00
57114;BME280;42994;51.606;9.988;2023-03-23T05:52:54;97896.81;;;8.95;100.00
57114;BME280;42994;51.606;9.988;2023-03-23T05:55:25;97893.53;;;9.00;100.00
57114;BME280;42994;51.606;9.988;2023-03-23T05:58:02;97888.94;;;9.07;100.00
57114;BME280;42994;51.606;9.988;2023-03-23T06:00:32;97893.94;;;9.03;100.00
57114;BME280;42994;51.606;9.988;2023-03-23T06:03:12;97887.34;;;8.99;100.00
57114;BME280;42994;51.606;9.988;2023-03-23T06:05:59;97891.47;;;9.02;100.00
57114;BME280;42994;51.606;9.988;2023-03-23T06:08:33;97882.44;;;8.96;100.00
57114;BME280;42994;51.606;9.988;2023-03-23T06:11:04;97892.88;;;8.98;100.00
57114;BME280;42994;51.606;9.988;2023-03-23T06:13:35;97892.88;;;8.98;100.00
57114;BME280;42994;51.606;9.988;2023-03-23T06:16:07;97886.53;;;8.99;100.00
57114;BME280;42994;51.606;9.988;2023-03-23T06:18:55;97888.78;;;9.02;100.00
57114;BME280;42994;51.606;9.988;2023-03-23T06:21:29;97886.09;;;9.02;100.00
57114;BME280;42994;51.606;9.988;2023-03-23T06:24:01;97870.28;;;9.00;100.00
57114;BME280;42994;51.606;9.988;2023-03-23T06:26:33;97867.19;;;8.97;100.00
57114;BME280;42994;51.606;9.988;2023-03-23T06:29:05;97859.78;;;8.99;100.00
57114;BME280;42994;51.606;9.988;2023-03-23T06:31:39;97851.56;;;9.00;100.00
57114;BME280;42994;51.606;9.988;2023-03-23T06:34:08;97858.78;;;9.00;100.00
57114;BME280;42994;51.606;9.988;2023-03-23T06:36:57;97885.25;;;9.01;100.00
57114;BME280;42994;51.606;9.988;2023-03-23T06:39:44;97880.75;;;9.02;100.00
57114;BME280;42994;51.606;9.988;2023-03-23T06:42:35;97874.56;;;9.08;100.00
57114;BME280;42994;51.606;9.988;2023-03-23T06:45:26;97877.84;;;9.10;100.00
57114;BME280;42994;51.606;9.988;2023-03-23T06:48:12;97884.66;;;9.13;100.00
57114;BME280;42994;51.606;9.988;2023-03-23T06:50:41;97899.63;;;9.14;100.00
57114;BME280;42994;51.606;9.988;2023-03-23T06:53:08;97910.94;;;9.16;100.00
57114;BME280;42994;51.606;9.988;2023-03-23T06:55:35;97904.97;;;9.20;100.00
57114;BME280;42994;51.606;9.988;2023-03-23T06:58:05;97913.59;;;9.22;100.00
57114;BME280;42994;51.606;9.988;2023-03-23T07:00:32;97919.34;;;9.26;100.00
57114;BME280;42994;51.606;9.988;2023-03-23T07:02:59;97927.13;;;9.34;100.00
57114;BME280;42994;51.606;9.988;2023-03-23T07:05:26;97921.16;;;9.39;100.00
57114;BME280;42994;51.606;9.988;2023-03-23T07:07:54;97917.84;;;9.43;100.00
57114;BME280;42994;51.606;9.988;2023-03-23T07:10:34;97921.75;;;9.48;100.00
57114;BME280;42994;51.606;9.988;2023-03-23T07:13:02;97924.22;;;9.49;100.00
57114;BME280;42994;51.606;9.988;2023-03-23T07:15:40;97922.97;;;9.52;100.00
57114;BME280;42994;51.606;9.988;2023-03-23T07:18:07;97919.88;;;9.55;100.00
57114;BME280;42994;51.606;9.988;2023-03-23T07:20:39;97910.22;;;9.54;100.00
57114;BME280;42994;51.606;9.988;2023-03-23T07:23:06;97909.78;;;9.57;100.00
57114;BME280;42994;51.606;9.988;2023-03-23T07:25:57;97916.75;;;9.58;100.00
57114;BME280;42994;51.606;9.988;2023-03-23T07:28:30;97912.03;;;9.60;100.00
57114;BME280;42994;51.606;9.988;2023-03-23T07:31:05;97912.03;;;9.60;100.00
57114;BME280;42994;51.606;9.988;2023-03-23T07:33:33;97914.50;;;9.61;100.00
57114;BME280;42994;51.606;9.988;2023-03-23T07:36:01;97924.78;;;9.65;100.00
57114;BME280;42994;51.606;9.988;2023-03-23T07:38:28;97927.84;;;9.68;100.00
57114;BME280;42994;51.606;9.988;2023-03-23T07:40:58;97931.94;;;9.71;100.00
57114;BME280;42994;51.606;9.988;2023-03-23T07:43:25;97929.66;;;9.74;100.00
57114;BME280;42994;51.606;9.988;2023-03-23T07:46:13;97942.22;;;9.80;100.00
57114;BME280;42994;51.606;9.988;2023-03-23T07:49:02;97946.09;;;9.85;100.00
57114;BME280;42994;51.606;9.988;2023-03-23T07:51:36;97946.69;;;9.87;100.00
57114;BME280;42994;51.606;9.988;2023-03-23T07:54:06;97949.34;;;9.93;100.00
57114;BME280;42994;51.606;9.988;2023-03-23T07:56:53;97955.28;;;10.02;100.00
57114;BME280;42994;51.606;9.988;2023-03-23T07:59:24;97942.91;;;10.08;100.00
57114;BME280;42994;51.606;9.988;2023-03-23T08:01:53;97941.84;;;10.09;100.00
57114;BME280;42994;51.606;9.988;2023-03-23T08:04:30;97945.69;;;10.19;100.00
57114;BME280;42994;51.606;9.988;2023-03-23T08:07:14;97953.94;;;10.18;100.00
57114;BME280;42994;51.606;9.988;2023-03-23T08:09:58;97930.13;;;10.42;100.00
57114;BME280;42994;51.606;9.988;2023-03-23T08:12:51;97934.09;;;10.39;100.00
57114;BME280;42994;51.606;9.988;2023-03-23T08:15:28;97944.97;;;10.44;100.00
57114;BME280;42994;51.606;9.988;2023-03-23T08:18:08;97958.31;;;10.51;100.00
57114;BME280;42994;51.606;9.988;2023-03-23T08:20:41;97945.47;;;10.60;100.00
57114;BME280;42994;51.606;9.988;2023-03-23T08:23:43;97964.22;;;10.60;100.00
57114;BME280;42994;51.606;9.988;2023-03-23T08:26:28;97965.81;;;10.67;100.00
57114;BME280;42994;51.606;9.988;2023-03-23T08:29:15;97981.47;;;10.70;100.00
57114;BME280;42994;51.606;9.988;2023-03-23T08:32:08;97969.09;;;10.69;100.00
57114;BME280;42994;51.606;9.988;2023-03-23T08:34:54;97963.31;;;10.72;100.00
57114;BME280;42994;51.606;9.988;2023-03-23T08:37:27;97989.06;;;10.73;100.00
57114;BME280;42994;51.606;9.988;2023-03-23T08:40:13;97982.03;;;10.79;100.00
57114;BME280;42994;51.606;9.988;2023-03-23T08:42:58;97972.06;;;10.86;100.00
57114;BME280;42994;51.606;9.988;2023-03-23T08:45:25;97987.47;;;10.91;100.00
57114;BME280;42994;51.606;9.988;2023-03-23T08:47:53;97980.50;;;10.90;100.00
57114;BME280;42994;51.606;9.988;2023-03-23T08:50:42;97964.53;;;10.95;100.00
57114;BME280;42994;51.606;9.988;2023-03-23T08:53:09;97970.66;;;11.02;100.00
57114;BME280;42994;51.606;9.988;2023-03-23T08:55:45;97966.53;;;11.06;100.00
57114;BME280;42994;51.606;9.988;2023-03-23T08:58:30;97966.28;;;11.08;100.00
57114;BME280;42994;51.606;9.988;2023-03-23T09:01:09;97970.25;;;11.05;100.00
57114;BME280;42994;51.606;9.988;2023-03-23T09:03:59;97981.34;;;11.09;100.00
57114;BME280;42994;51.606;9.988;2023-03-23T09:06:46;97968.31;;;11.12;100.00
57114;BME280;42994;51.606;9.988;2023-03-23T09:09:13;97983.75;;;11.17;100.00
57114;BME280;42994;51.606;9.988;2023-03-23T09:11:40;97984.97;;;11.21;100.00
57114;BME280;42994;51.606;9.988;2023-03-23T09:14:07;97982.88;;;11.23;100.00
57114;BME280;42994;51.606;9.988;2023-03-23T09:16:34;97992.91;;;11.28;100.00
57114;BME280;42994;51.606;9.988;2023-03-23T09:19:01;97984.06;;;11.27;100.00
57114;BME280;42994;51.606;9.988;2023-03-23T09:21:28;97975.75;;;11.35;100.00
57114;BME280;42994;51.606;9.988;2023-03-23T09:23:56;97988.09;;;11.37;100.00
57114;BME280;42994;51.606;9.988;2023-03-23T09:26:23;97987.22;;;11.43;100.00
57114;BME280;42994;51.606;9.988;2023-03-23T09:28:50;97977.69;;;11.47;100.00
57114;BME280;42994;51.606;9.988;2023-03-23T09:31:17;97974.63;;;11.43;100.00
57114;BME280;42994;51.606;9.988;2023-03-23T09:33:45;97985.94;;;11.45;100.00
57114;BME280;42994;51.606;9.988;2023-03-23T09:36:16;97985.34;;;11.62;100.00
57114;BME280;42994;51.606;9.988;2023-03-23T09:38:43;97991.63;;;11.56;100.00
57114;BME280;42994;51.606;9.988;2023-03-23T09:41:19;97989.44;;;11.64;100.00
57114;BME280;42994;51.606;9.988;2023-03-23T09:43:59;97995.28;;;11.80;100.00
57114;BME280;42994;51.606;9.988;2023-03-23T09:46:38;98007.00;;;11.67;100.00
57114;BME280;42994;51.606;9.988;2023-03-23T09:49:10;97998.84;;;11.73;100.00
57114;BME280;42994;51.606;9.988;2023-03-23T09:51:42;98004.16;;;11.80;100.00
57114;BME280;42994;51.606;9.988;2023-03-23T09:54:11;97995.88;;;11.82;100.00
57114;BME280;42994;51.606;9.988;2023-03-23T09:56:40;98006.69;;;11.75;100.00
57114;BME280;42994;51.606;9.988;2023-03-23T09:59:14;97993.34;;;11.87;100.00
57114;BME280;42994;51.606;9.988;2023-03-23T10:01:44;98002.44;;;11.86;100.00
57114;BME280;42994;51.606;9.988;2023-03-23T10:04:17;97994.16;;;11.87;100.00
57114;BME280;42994;51.606;9.988;2023-03-23T10:06:48;97996.78;;;11.94;100.00
57114;BME280;42994;51.606;9.988;2023-03-23T10:09:18;97999.00;;;11.97;100.00
57114;BME280;42994;51.606;9.988;2023-03-23T10:11:55;98005.44;;;11.96;100.00
57114;BME280;42994;51.606;9.988;2023-03-23T10:14:33;98011.34;;;12.05;100.00
57114;BME280;42994;51.606;9.988;2023-03-23T10:17:10;98015.22;;;11.90;100.00
57114;BME280;42994;51.606;9.988;2023-03-23T10:19:46;98003.03;;;12.06;100.00
57114;BME280;42994;51.606;9.988;2023-03-23T10:22:14;98010.44;;;12.11;100.00
57114;BME280;42994;51.606;9.988;2023-03-23T10:24:48;98012.59;;;12.02;100.00
57114;BME280;42994;51.606;9.988;2023-03-23T10:27:25;98022.91;;;12.05;100.00
57114;BME280;42994;51.606;9.988;2023-03-23T10:29:57;98013.50;;;11.96;100.00
57114;BME280;42994;51.606;9.988;2023-03-23T10:32:39;98021.97;;;12.11;100.00
57114;BME280;42994;51.606;9.988;2023-03-23T10:35:11;98021.16;;;12.11;100.00
57114;BME280;42994;51.606;9.988;2023-03-23T10:37:44;98026.91;;;12.15;100.00
57114;BME280;42994;51.606;9.988;2023-03-23T10:40:16;98019.81;;;12.20;100.00
57114;BME280;42994;51.606;9.988;2023-03-23T10:42:46;98010.59;;;12.28;100.00
57114;BME280;42994;51.606;9.988;2023-03-23T10:45:17;98026.84;;;12.21;100.00
57114;BME280;42994;51.606;9.988;2023-03-23T10:47:48;98011.97;;;12.19;100.00
57114;BME280;42994;51.606;9.988;2023-03-23T10:50:21;98027.19;;;12.25;100.00
57114;BME280;42994;51.606;9.988;2023-03-23T10:52:50;98020.63;;;12.21;100.00
57114;BME280;42994;51.606;9.988;2023-03-23T10:55:20;98023.03;;;12.41;100.00
57114;BME280;42994;51.606;9.988;2023-03-23T10:58:00;98032.41;;;12.38;100.00
57114;BME280;42994;51.606;9.988;2023-03-23T11:00:28;98020.63;;;12.51;100.00
57114;BME280;42994;51.606;9.988;2023-03-23T11:03:01;98010.94;;;12.50;100.00
57114;BME280;42994;51.606;9.988;2023-03-23T11:05:35;98022.19;;;12.59;100.00
57114;BME280;42994;51.606;9.988;2023-03-23T11:08:03;98012.13;;;12.54;100.00
57114;BME280;42994;51.606;9.988;2023-03-23T11:10:35;97999.16;;;12.63;100.00
57114;BME280;42994;51.606;9.988;2023-03-23T11:13:04;97993.00;;;12.74;100.00
57114;BME280;42994;51.606;9.988;2023-03-23T11:15:38;97997.81;;;12.84;100.00
57114;BME280;42994;51.606;9.988;2023-03-23T11:18:11;98003.78;;;12.74;100.00
57114;BME280;42994;51.606;9.988;2023-03-23T11:20:41;97987.50;;;12.69;100.00
57114;BME280;42994;51.606;9.988;2023-03-23T11:23:18;97991.38;;;12.73;100.00
57114;BME280;42994;51.606;9.988;2023-03-23T11:25:55;98008.22;;;12.80;100.00
57114;BME280;42994;51.606;9.988;2023-03-23T11:28:30;98008.00;;;12.82;100.00
57114;BME280;42994;51.606;9.988;2023-03-23T11:30:58;98011.22;;;12.72;100.00
57114;BME280;42994;51.606;9.988;2023-03-23T11:33:29;98026.75;;;12.70;100.00
57114;BME280;42994;51.606;9.988;2023-03-23T11:35:55;98025.38;;;12.79;100.00
57114;BME280;42994;51.606;9.988;2023-03-23T11:38:24;98021.66;;;12.80;100.00
57114;BME280;42994;51.606;9.988;2023-03-23T11:40:53;98023.41;;;12.86;100.00
57114;BME280;42994;51.606;9.988;2023-03-23T11:43:21;98024.25;;;12.87;100.00
57114;BME280;42994;51.606;9.988;2023-03-23T11:45:58;98018.97;;;12.92;100.00
57114;BME280;42994;51.606;9.988;2023-03-23T11:48:34;98018.06;;;12.98;100.00
57114;BME280;42994;51.606;9.988;2023-03-23T11:51:05;98020.53;;;13.00;100.00
57114;BME280;42994;51.606;9.988;2023-03-23T11:53:43;98021.72;;;13.04;100.00
57114;BME280;42994;51.606;9.988;2023-03-23T11:56:17;98040.09;;;13.19;100.00
57114;BME280;42994;51.606;9.988;2023-03-23T11:58:45;98031.19;;;13.18;100.00
57114;BME280;42994;51.606;9.988;2023-03-23T12:01:21;98024.53;;;13.21;100.00
57114;BME280;42994;51.606;9.988;2023-03-23T12:04:13;98031.91;;;13.25;100.00
57114;BME280;42994;51.606;9.988;2023-03-23T12:06:50;98025.59;;;13.20;100.00
57114;BME280;42994;51.606;9.988;2023-03-23T12:09:32;98042.34;;;13.34;100.00
57114;BME280;42994;51.606;9.988;2023-03-23T12:12:12;98027.97;;;13.40;100.00
57114;BME280;42994;51.606;9.988;2023-03-23T12:14:48;98038.25;;;13.31;100.00
57114;BME280;42994;51.606;9.988;2023-03-23T12:17:27;98025.63;;;13.32;100.00
57114;BME280;42994;51.606;9.988;2023-03-23T12:20:09;98027.56;;;13.24;100.00
57114;BME280;42994;51.606;9.988;2023-03-23T12:22:46;98037.44;;;13.31;100.00
57114;BME280;42994;51.606;9.988;2023-03-23T12:28:29;98025.63;;;13.55;100.00
57114;BME280;42994;51.606;9.988;2023-03-23T12:31:02;98021.41;;;13.59;100.00
57114;BME280;42994;51.606;9.988;2023-03-23T12:33:45;98033.47;;;13.57;100.00
57114;BME280;42994;51.606;9.988;2023-03-23T12:36:24;98015.06;;;13.54;100.00
57114;BME280;42994;51.606;9.988;2023-03-23T12:41:52;98035.69;;;13.48;100.00
57114;BME280;42994;51.606;9.988;2023-03-23T12:44:27;98028.31;;;13.43;100.00
57114;BME280;42994;51.606;9.988;2023-03-23T12:47:08;98021.03;;;13.56;100.00
57114;BME280;42994;51.606;9.988;2023-03-23T12:49:41;98034.66;;;13.49;100.00
57114;BME280;42994;51.606;9.988;2023-03-23T12:52:15;98034.16;;;13.52;100.00
57114;BME280;42994;51.606;9.988;2023-03-23T12:54:46;98011.81;;;13.63;100.00
57114;BME280;42994;51.606;9.988;2023-03-23T12:57:21;98024.09;;;13.48;100.00
57114;BME280;42994;51.606;9.988;2023-03-23T12:59:54;98021.75;;;13.63;100.00
57114;BME280;42994;51.606;9.988;2023-03-23T13:02:25;98028.16;;;13.86;100.00
57114;BME280;42994;51.606;9.988;2023-03-23T13:05:00;98007.69;;;13.73;100.00
57114;BME280;42994;51.606;9.988;2023-03-23T13:07:31;98008.34;;;13.92;100.00
57114;BME280;42994;51.606;9.988;2023-03-23T13:10:03;98007.59;;;13.68;100.00
57114;BME280;42994;51.606;9.988;2023-03-23T13:12:32;98012.47;;;13.82;100.00
57114;BME280;42994;51.606;9.988;2023-03-23T13:15:15;98024.44;;;13.75;100.00
57114;BME280;42994;51.606;9.988;2023-03-23T13:17:49;98026.41;;;13.91;100.00
57114;BME280;42994;51.606;9.988;2023-03-23T13:20:37;98015.41;;;13.81;100.00
57114;BME280;42994;51.606;9.988;2023-03-23T13:23:12;98018.56;;;13.90;100.00
57114;BME280;42994;51.606;9.988;2023-03-23T13:25:48;98023.38;;;13.88;100.00
57114;BME280;42994;51.606;9.988;2023-03-23T13:28:16;98013.28;;;13.83;100.00
57114;BME280;42994;51.606;9.988;2023-03-23T13:31:00;98019.50;;;13.72;100.00
57114;BME280;42994;51.606;9.988;2023-03-23T13:33:35;98020.78;;;13.81;100.00
57114;BME280;42994;51.606;9.988;2023-03-23T13:36:08;98009.31;;;13.74;100.00